sensor_id;sensor_type;location;lat;lon;timestamp;P1;durP1;ratioP1;P2;durP2;ratioP2
31270;SDS011;17904;47.420;9.310;2022-11-14T00:00:16;6.05;;;3.95;;
31270;SDS011;17904;47.420;9.310;2022-11-14T00:03:04;4.63;;;3.75;;
31270;SDS011;17904;47.420;9.310;2022-11-14T00:05:50;5.82;;;4.13;;
31270;SDS011;17904;47.420;9.310;2022-11-14T00:08:36;4.95;;;3.90;;
31270;SDS011;17904;47.420;9.310;2022-11-14T00:11:21;6.43;;;3.88;;
31270;SDS011;17904;47.420;9.310;2022-11-14T00:14:08;5.45;;;3.33;;
31270;SDS011;17904;47.420;9.310;2022-11-14T00:16:54;4.63;;;2.97;;
31270;SDS011;17904;47.420;9.310;2022-11-14T00:19:39;5.65;;;3.97;;
31270;SDS011;17904;47.420;9.310;2022-11-14T00:22:25;4.00;;;3.30;;
31270;SDS011;17904;47.420;9.310;2022-11-14T00:25:10;5.22;;;3.95;;
31270;SDS011;17904;47.420;9.310;2022-11-14T00:27:56;7.05;;;3.60;;
31270;SDS011;17904;47.420;9.310;2022-11-14T00:30:45;6.10;;;3.78;;
31270;SDS011;17904;47.420;9.310;2022-11-14T00:33:32;5.05;;;3.83;;
31270;SDS011;17904;47.420;9.310;2022-11-14T00:36:17;5.28;;;3.97;;
31270;SDS011;17904;47.420;9.310;2022-11-14T00:39:02;6.07;;;3.92;;
31270;SDS011;17904;47.420;9.310;2022-11-14T00:41:48;3.58;;;3.08;;
31270;SDS011;17904;47.420;9.310;2022-11-14T00:44:33;6.07;;;4.30;;
31270;SDS011;17904;47.420;9.310;2022-11-14T00:47:19;5.72;;;4.40;;
31270;SDS011;17904;47.420;9.310;2022-11-14T00:50:05;8.30;;;4.10;;
31270;SDS011;17904;47.420;9.310;2022-11-14T00:52:51;5.90;;;4.70;;
31270;SDS011;17904;47.420;9.310;2022-11-14T00:55:36;5.13;;;4.35;;
31270;SDS011;17904;47.420;9.310;2022-11-14T00:58:22;8.95;;;5.93;;
31270;SDS011;17904;47.420;9.310;2022-11-14T01:01:07;6.53;;;4.53;;
31270;SDS011;17904;47.420;9.310;2022-11-14T01:03:53;8.18;;;6.05;;
31270;SDS011;17904;47.420;9.310;2022-11-14T01:06:40;8.25;;;5.90;;
31270;SDS011;17904;47.420;9.310;2022-11-14T01:09:25;9.20;;;5.47;;
31270;SDS011;17904;47.420;9.310;2022-11-14T01:12:10;6.97;;;5.47;;
31270;SDS011;17904;47.420;9.310;2022-11-14T01:14:56;8.60;;;5.97;;
31270;SDS011;17904;47.420;9.310;2022-11-14T01:17:41;12.55;;;5.93;;
31270;SDS011;17904;47.420;9.310;2022-11-14T01:20:27;8.13;;;6.30;;
31270;SDS011;17904;47.420;9.310;2022-11-14T01:23:13;6.90;;;5.50;;
31270;SDS011;17904;47.420;9.310;2022-11-14T01:26:03;7.70;;;5.30;;
31270;SDS011;17904;47.420;9.310;2022-11-14T01:28:52;6.72;;;5.70;;
31270;SDS011;17904;47.420;9.310;2022-11-14T01:31:38;7.90;;;5.80;;
31270;SDS011;17904;47.420;9.310;2022-11-14T01:34:23;12.07;;;5.40;;
31270;SDS011;17904;47.420;9.310;2022-11-14T01:37:08;8.77;;;5.88;;
31270;SDS011;17904;47.420;9.310;2022-11-14T01:39:54;8.95;;;5.65;;
31270;SDS011;17904;47.420;9.310;2022-11-14T01:42:39;8.25;;;5.82;;
31270;SDS011;17904;47.420;9.310;2022-11-14T01:54:47;9.05;;;6.35;;
31270;SDS011;17904;47.420;9.310;2022-11-14T01:57:36;10.70;;;6.43;;
31270;SDS011;17904;47.420;9.310;2022-11-14T02:00:24;7.50;;;6.07;;
31270;SDS011;17904;47.420;9.310;2022-11-14T02:03:10;10.35;;;7.20;;
31270;SDS011;17904;47.420;9.310;2022-11-14T02:05:58;9.55;;;6.57;;
31270;SDS011;17904;47.420;9.310;2022-11-14T02:08:45;8.48;;;5.70;;
31270;SDS011;17904;47.420;9.310;2022-11-14T02:11:34;9.02;;;6.10;;
31270;SDS011;17904;47.420;9.310;2022-11-14T02:14:22;6.05;;;5.30;;
31270;SDS011;17904;47.420;9.310;2022-11-14T02:17:08;9.95;;;5.93;;
31270;SDS011;17904;47.420;9.310;2022-11-14T02:20:17;7.95;;;5.53;;
31270;SDS011;17904;47.420;9.310;2022-11-14T02:23:04;11.07;;;6.13;;
31270;SDS011;17904;47.420;9.310;2022-11-14T02:25:50;9.02;;;6.50;;
31270;SDS011;17904;47.420;9.310;2022-11-14T02:28:35;8.88;;;5.88;;
31270;SDS011;17904;47.420;9.310;2022-11-14T02:31:21;6.63;;;5.38;;
31270;SDS011;17904;47.420;9.310;2022-11-14T02:34:06;8.35;;;5.75;;
31270;SDS011;17904;47.420;9.310;2022-11-14T02:36:52;9.68;;;6.53;;
31270;SDS011;17904;47.420;9.310;2022-11-14T02:39:37;11.50;;;7.18;;
31270;SDS011;17904;47.420;9.310;2022-11-14T02:42:23;9.43;;;6.57;;
31270;SDS011;17904;47.420;9.310;2022-11-14T02:45:09;8.15;;;6.25;;
31270;SDS011;17904;47.420;9.310;2022-11-14T02:47:56;8.93;;;5.70;;
31270;SDS011;17904;47.420;9.310;2022-11-14T02:50:41;8.35;;;5.75;;
31270;SDS011;17904;47.420;9.310;2022-11-14T02:53:27;9.65;;;6.03;;
31270;SDS011;17904;47.420;9.310;2022-11-14T02:56:12;8.45;;;5.85;;
31270;SDS011;17904;47.420;9.310;2022-11-14T02:58:58;8.52;;;5.82;;
31270;SDS011;17904;47.420;9.310;2022-11-14T03:01:43;10.75;;;6.38;;
31270;SDS011;17904;47.420;9.310;2022-11-14T03:04:29;7.45;;;5.75;;
31270;SDS011;17904;47.420;9.310;2022-11-14T03:07:14;11.40;;;7.20;;
31270;SDS011;17904;47.420;9.310;2022-11-14T03:10:00;7.10;;;5.80;;
31270;SDS011;17904;47.420;9.310;2022-11-14T03:12:45;11.68;;;7.18;;
31270;SDS011;17904;47.420;9.310;2022-11-14T03:15:31;10.95;;;7.50;;
31270;SDS011;17904;47.420;9.310;2022-11-14T03:18:16;11.32;;;6.75;;
31270;SDS011;17904;47.420;9.310;2022-11-14T03:21:09;7.75;;;6.22;;
31270;SDS011;17904;47.420;9.310;2022-11-14T03:24:04;8.13;;;6.03;;
31270;SDS011;17904;47.420;9.310;2022-11-14T03:26:50;8.77;;;6.72;;
31270;SDS011;17904;47.420;9.310;2022-11-14T03:29:35;7.65;;;6.30;;
31270;SDS011;17904;47.420;9.310;2022-11-14T03:32:20;7.45;;;5.65;;
31270;SDS011;17904;47.420;9.310;2022-11-14T03:35:06;9.23;;;6.50;;
31270;SDS011;17904;47.420;9.310;2022-11-14T03:37:52;9.10;;;6.00;;
31270;SDS011;17904;47.420;9.310;2022-11-14T03:40:40;9.43;;;6.38;;
31270;SDS011;17904;47.420;9.310;2022-11-14T03:43:29;12.45;;;7.00;;
31270;SDS011;17904;47.420;9.310;2022-11-14T03:46:16;8.75;;;6.30;;
31270;SDS011;17904;47.420;9.310;2022-11-14T03:49:01;12.73;;;9.52;;
31270;SDS011;17904;47.420;9.310;2022-11-14T03:51:47;22.83;;;12.40;;
31270;SDS011;17904;47.420;9.310;2022-11-14T03:54:32;20.33;;;11.85;;
31270;SDS011;17904;47.420;9.310;2022-11-14T03:57:18;23.15;;;12.48;;
31270;SDS011;17904;47.420;9.310;2022-11-14T04:00:03;19.20;;;12.18;;
31270;SDS011;17904;47.420;9.310;2022-11-14T04:02:49;28.52;;;13.88;;
31270;SDS011;17904;47.420;9.310;2022-11-14T04:05:35;14.73;;;8.68;;
31270;SDS011;17904;47.420;9.310;2022-11-14T04:08:20;11.48;;;7.68;;
31270;SDS011;17904;47.420;9.310;2022-11-14T04:11:06;12.65;;;8.55;;
31270;SDS011;17904;47.420;9.310;2022-11-14T04:13:51;12.88;;;8.50;;
31270;SDS011;17904;47.420;9.310;2022-11-14T04:16:37;12.32;;;7.85;;
31270;SDS011;17904;47.420;9.310;2022-11-14T04:19:22;10.20;;;7.15;;
31270;SDS011;17904;47.420;9.310;2022-11-14T04:22:08;10.27;;;6.20;;
31270;SDS011;17904;47.420;9.310;2022-11-14T04:24:53;8.05;;;5.28;;
31270;SDS011;17904;47.420;9.310;2022-11-14T04:27:39;11.25;;;7.88;;
31270;SDS011;17904;47.420;9.310;2022-11-14T04:30:24;14.27;;;6.70;;
31270;SDS011;17904;47.420;9.310;2022-11-14T04:33:16;10.25;;;6.82;;
31270;SDS011;17904;47.420;9.310;2022-11-14T04:36:01;9.02;;;6.10;;
31270;SDS011;17904;47.420;9.310;2022-11-14T04:38:47;8.70;;;6.60;;
31270;SDS011;17904;47.420;9.310;2022-11-14T04:41:32;15.20;;;8.20;;
31270;SDS011;17904;47.420;9.310;2022-11-14T04:44:18;10.65;;;7.18;;
31270;SDS011;17904;47.420;9.310;2022-11-14T04:47:03;12.82;;;7.68;;
31270;SDS011;17904;47.420;9.310;2022-11-14T04:49:48;11.50;;;7.38;;
31270;SDS011;17904;47.420;9.310;2022-11-14T04:52:34;10.10;;;6.82;;
31270;SDS011;17904;47.420;9.310;2022-11-14T04:55:19;8.38;;;6.53;;
31270;SDS011;17904;47.420;9.310;2022-11-14T04:58:05;11.02;;;7.75;;
31270;SDS011;17904;47.420;9.310;2022-11-14T05:00:50;9.93;;;6.25;;
31270;SDS011;17904;47.420;9.310;2022-11-14T05:03:36;10.75;;;5.85;;
31270;SDS011;17904;47.420;9.310;2022-11-14T05:06:21;8.85;;;5.57;;
31270;SDS011;17904;47.420;9.310;2022-11-14T05:09:07;7.60;;;4.57;;
31270;SDS011;17904;47.420;9.310;2022-11-14T05:11:52;7.10;;;5.28;;
31270;SDS011;17904;47.420;9.310;2022-11-14T05:14:38;6.80;;;4.70;;
31270;SDS011;17904;47.420;9.310;2022-11-14T05:17:23;9.43;;;5.18;;
31270;SDS011;17904;47.420;9.310;2022-11-14T05:20:09;7.10;;;5.47;;
31270;SDS011;17904;47.420;9.310;2022-11-14T05:22:55;7.22;;;4.63;;
31270;SDS011;17904;47.420;9.310;2022-11-14T05:25:42;8.77;;;6.03;;
31270;SDS011;17904;47.420;9.310;2022-11-14T05:28:27;10.38;;;6.15;;
31270;SDS011;17904;47.420;9.310;2022-11-14T05:31:13;10.45;;;7.05;;
31270;SDS011;17904;47.420;9.310;2022-11-14T05:34:01;14.43;;;7.20;;
31270;SDS011;17904;47.420;9.310;2022-11-14T05:36:47;11.27;;;7.80;;
31270;SDS011;17904;47.420;9.310;2022-11-14T05:39:32;11.65;;;6.93;;
31270;SDS011;17904;47.420;9.310;2022-11-14T05:42:17;12.63;;;6.45;;
31270;SDS011;17904;47.420;9.310;2022-11-14T05:45:03;11.05;;;7.38;;
31270;SDS011;17904;47.420;9.310;2022-11-14T05:47:50;12.90;;;7.07;;
31270;SDS011;17904;47.420;9.310;2022-11-14T05:50:37;18.95;;;10.40;;
31270;SDS011;17904;47.420;9.310;2022-11-14T05:53:23;19.85;;;11.05;;
31270;SDS011;17904;47.420;9.310;2022-11-14T05:56:10;17.05;;;10.38;;
31270;SDS011;17904;47.420;9.310;2022-11-14T05:58:56;21.02;;;12.80;;
31270;SDS011;17904;47.420;9.310;2022-11-14T06:01:41;29.83;;;18.10;;
31270;SDS011;17904;47.420;9.310;2022-11-14T06:04:27;31.25;;;15.85;;
31270;SDS011;17904;47.420;9.310;2022-11-14T06:07:12;36.45;;;16.83;;
31270;SDS011;17904;47.420;9.310;2022-11-14T06:10:04;33.25;;;15.60;;
31270;SDS011;17904;47.420;9.310;2022-11-14T06:12:49;25.98;;;16.38;;
31270;SDS011;17904;47.420;9.310;2022-11-14T06:15:34;23.75;;;14.27;;
31270;SDS011;17904;47.420;9.310;2022-11-14T06:18:20;19.98;;;12.02;;
31270;SDS011;17904;47.420;9.310;2022-11-14T06:21:07;20.33;;;11.60;;
31270;SDS011;17904;47.420;9.310;2022-11-14T06:23:56;23.33;;;12.85;;
31270;SDS011;17904;47.420;9.310;2022-11-14T06:26:41;16.40;;;11.27;;
31270;SDS011;17904;47.420;9.310;2022-11-14T06:29:27;17.13;;;11.00;;
31270;SDS011;17904;47.420;9.310;2022-11-14T06:32:19;19.13;;;11.75;;
31270;SDS011;17904;47.420;9.310;2022-11-14T06:35:05;17.63;;;11.05;;
31270;SDS011;17904;47.420;9.310;2022-11-14T06:37:52;23.23;;;13.20;;
31270;SDS011;17904;47.420;9.310;2022-11-14T06:40:38;17.38;;;10.65;;
31270;SDS011;17904;47.420;9.310;2022-11-14T06:43:23;16.88;;;11.88;;
31270;SDS011;17904;47.420;9.310;2022-11-14T06:46:10;16.23;;;9.75;;
31270;SDS011;17904;47.420;9.310;2022-11-14T06:48:57;18.08;;;10.32;;
31270;SDS011;17904;47.420;9.310;2022-11-14T06:51:42;10.50;;;7.50;;
31270;SDS011;17904;47.420;9.310;2022-11-14T06:54:29;8.80;;;5.82;;
31270;SDS011;17904;47.420;9.310;2022-11-14T06:57:14;12.65;;;6.63;;
31270;SDS011;17904;47.420;9.310;2022-11-14T06:59:59;8.25;;;6.03;;
31270;SDS011;17904;47.420;9.310;2022-11-14T07:02:45;8.88;;;5.30;;
31270;SDS011;17904;47.420;9.310;2022-11-14T07:05:32;8.18;;;5.13;;
31270;SDS011;17904;47.420;9.310;2022-11-14T07:08:17;10.13;;;6.97;;
31270;SDS011;17904;47.420;9.310;2022-11-14T07:11:09;16.40;;;9.98;;
31270;SDS011;17904;47.420;9.310;2022-11-14T07:13:56;16.00;;;10.27;;
31270;SDS011;17904;47.420;9.310;2022-11-14T07:16:45;13.95;;;8.73;;
31270;SDS011;17904;47.420;9.310;2022-11-14T07:19:30;13.05;;;8.32;;
31270;SDS011;17904;47.420;9.310;2022-11-14T07:22:16;13.75;;;9.63;;
31270;SDS011;17904;47.420;9.310;2022-11-14T07:25:01;12.55;;;8.48;;
31270;SDS011;17904;47.420;9.310;2022-11-14T07:27:47;13.98;;;9.27;;
31270;SDS011;17904;47.420;9.310;2022-11-14T07:30:32;5.00;;;3.83;;
31270;SDS011;17904;47.420;9.310;2022-11-14T07:33:18;3.00;;;2.17;;
31270;SDS011;17904;47.420;9.310;2022-11-14T07:36:04;4.00;;;2.28;;
31270;SDS011;17904;47.420;9.310;2022-11-14T07:38:50;2.50;;;2.13;;
31270;SDS011;17904;47.420;9.310;2022-11-14T07:41:36;9.65;;;5.60;;
31270;SDS011;17904;47.420;9.310;2022-11-14T07:44:21;10.80;;;7.68;;
31270;SDS011;17904;47.420;9.310;2022-11-14T07:47:07;16.02;;;8.90;;
31270;SDS011;17904;47.420;9.310;2022-11-14T07:49:52;12.43;;;7.20;;
31270;SDS011;17904;47.420;9.310;2022-11-14T07:52:37;7.03;;;4.03;;
31270;SDS011;17904;47.420;9.310;2022-11-14T07:55:23;5.07;;;2.75;;
31270;SDS011;17904;47.420;9.310;2022-11-14T07:58:09;3.80;;;2.70;;
31270;SDS011;17904;47.420;9.310;2022-11-14T08:00:54;12.35;;;5.95;;
31270;SDS011;17904;47.420;9.310;2022-11-14T08:03:40;11.52;;;6.43;;
31270;SDS011;17904;47.420;9.310;2022-11-14T08:06:29;6.68;;;4.70;;
31270;SDS011;17904;47.420;9.310;2022-11-14T08:09:15;6.25;;;3.20;;
31270;SDS011;17904;47.420;9.310;2022-11-14T08:12:00;4.20;;;2.95;;
31270;SDS011;17904;47.420;9.310;2022-11-14T08:14:46;4.82;;;3.40;;
31270;SDS011;17904;47.420;9.310;2022-11-14T08:17:31;6.00;;;3.83;;
31270;SDS011;17904;47.420;9.310;2022-11-14T08:20:17;8.38;;;3.95;;
31270;SDS011;17904;47.420;9.310;2022-11-14T08:23:03;5.57;;;3.08;;
31270;SDS011;17904;47.420;9.310;2022-11-14T08:25:50;11.30;;;3.22;;
31270;SDS011;17904;47.420;9.310;2022-11-14T08:28:36;5.20;;;3.35;;
31270;SDS011;17904;47.420;9.310;2022-11-14T08:31:22;6.28;;;3.42;;
31270;SDS011;17904;47.420;9.310;2022-11-14T08:34:07;6.60;;;2.78;;
31270;SDS011;17904;47.420;9.310;2022-11-14T08:36:53;4.65;;;2.40;;
31270;SDS011;17904;47.420;9.310;2022-11-14T08:39:40;6.60;;;2.45;;
31270;SDS011;17904;47.420;9.310;2022-11-14T08:42:26;4.43;;;2.13;;
31270;SDS011;17904;47.420;9.310;2022-11-14T08:45:11;4.45;;;1.83;;
31270;SDS011;17904;47.420;9.310;2022-11-14T08:47:57;1.40;;;1.30;;
31270;SDS011;17904;47.420;9.310;2022-11-14T08:50:42;2.08;;;1.70;;
31270;SDS011;17904;47.420;9.310;2022-11-14T08:53:28;7.30;;;2.78;;
31270;SDS011;17904;47.420;9.310;2022-11-14T08:56:14;6.60;;;1.92;;
31270;SDS011;17904;47.420;9.310;2022-11-14T08:59:02;3.88;;;1.67;;
31270;SDS011;17904;47.420;9.310;2022-11-14T09:01:48;1.83;;;1.42;;
31270;SDS011;17904;47.420;9.310;2022-11-14T09:04:33;3.42;;;1.52;;
31270;SDS011;17904;47.420;9.310;2022-11-14T09:07:18;1.20;;;1.08;;
31270;SDS011;17904;47.420;9.310;2022-11-14T09:10:04;1.33;;;1.23;;
31270;SDS011;17904;47.420;9.310;2022-11-14T09:12:56;1.65;;;1.20;;
31270;SDS011;17904;47.420;9.310;2022-11-14T09:15:43;2.25;;;1.50;;
31270;SDS011;17904;47.420;9.310;2022-11-14T09:18:29;2.47;;;1.58;;
31270;SDS011;17904;47.420;9.310;2022-11-14T09:21:15;2.33;;;1.45;;
31270;SDS011;17904;47.420;9.310;2022-11-14T09:24:00;3.08;;;1.65;;
31270;SDS011;17904;47.420;9.310;2022-11-14T09:26:46;1.48;;;1.30;;
31270;SDS011;17904;47.420;9.310;2022-11-14T09:29:40;1.98;;;1.20;;
31270;SDS011;17904;47.420;9.310;2022-11-14T09:32:25;0.90;;;0.90;;
31270;SDS011;17904;47.420;9.310;2022-11-14T09:35:11;1.85;;;1.00;;
31270;SDS011;17904;47.420;9.310;2022-11-14T09:37:58;1.35;;;1.23;;
31270;SDS011;17904;47.420;9.310;2022-11-14T09:44:12;1.42;;;1.10;;
31270;SDS011;17904;47.420;9.310;2022-11-14T09:47:09;0.73;;;0.73;;
31270;SDS011;17904;47.420;9.310;2022-11-14T09:50:06;1.27;;;0.98;;
31270;SDS011;17904;47.420;9.310;2022-11-14T09:56:11;2.22;;;0.90;;
31270;SDS011;17904;47.420;9.310;2022-11-14T09:58:58;1.23;;;0.80;;
31270;SDS011;17904;47.420;9.310;2022-11-14T10:01:56;3.55;;;0.70;;
31270;SDS011;17904;47.420;9.310;2022-11-14T10:08:28;0.80;;;0.80;;
31270;SDS011;17904;47.420;9.310;2022-11-14T10:11:46;7.25;;;4.38;;
31270;SDS011;17904;47.420;9.310;2022-11-14T10:27:26;1.27;;;1.15;;
31270;SDS011;17904;47.420;9.310;2022-11-14T10:30:50;1.15;;;1.05;;
31270;SDS011;17904;47.420;9.310;2022-11-14T10:33:51;0.80;;;0.80;;
31270;SDS011;17904;47.420;9.310;2022-11-14T10:39:50;7.75;;;2.45;;
31270;SDS011;17904;47.420;9.310;2022-11-14T10:42:38;2.25;;;1.30;;
31270;SDS011;17904;47.420;9.310;2022-11-14T10:45:39;1.20;;;1.00;;
31270;SDS011;17904;47.420;9.310;2022-11-14T10:48:33;6.05;;;1.30;;
31270;SDS011;17904;47.420;9.310;2022-11-14T10:56:53;2.25;;;1.20;;
31270;SDS011;17904;47.420;9.310;2022-11-14T10:59:39;3.33;;;1.27;;
31270;SDS011;17904;47.420;9.310;2022-11-14T11:02:27;1.77;;;1.23;;
31270;SDS011;17904;47.420;9.310;2022-11-14T11:05:48;1.48;;;1.10;;
31270;SDS011;17904;47.420;9.310;2022-11-14T11:08:41;1.67;;;1.23;;
31270;SDS011;17904;47.420;9.310;2022-11-14T11:11:58;3.53;;;1.75;;
31270;SDS011;17904;47.420;9.310;2022-11-14T11:14:46;1.85;;;1.25;;
31270;SDS011;17904;47.420;9.310;2022-11-14T11:17:33;2.67;;;1.23;;
31270;SDS011;17904;47.420;9.310;2022-11-14T11:20:31;5.38;;;1.20;;
31270;SDS011;17904;47.420;9.310;2022-11-14T11:23:20;2.15;;;1.30;;
31270;SDS011;17904;47.420;9.310;2022-11-14T11:31:50;1.08;;;0.93;;
31270;SDS011;17904;47.420;9.310;2022-11-14T11:34:37;3.20;;;1.23;;
31270;SDS011;17904;47.420;9.310;2022-11-14T11:38:08;1.63;;;1.10;;
31270;SDS011;17904;47.420;9.310;2022-11-14T11:44:17;0.98;;;0.80;;
31270;SDS011;17904;47.420;9.310;2022-11-14T11:47:04;1.05;;;0.70;;
31270;SDS011;17904;47.420;9.310;2022-11-14T11:49:56;3.42;;;0.80;;
31270;SDS011;17904;47.420;9.310;2022-11-14T11:52:56;1.38;;;0.77;;
31270;SDS011;17904;47.420;9.310;2022-11-14T11:55:59;0.70;;;0.70;;
31270;SDS011;17904;47.420;9.310;2022-11-14T12:05:14;0.77;;;0.75;;
31270;SDS011;17904;47.420;9.310;2022-11-14T12:08:02;5.10;;;1.63;;
31270;SDS011;17904;47.420;9.310;2022-11-14T12:10:51;3.35;;;0.90;;
31270;SDS011;17904;47.420;9.310;2022-11-14T12:32:12;1.05;;;0.63;;
31270;SDS011;17904;47.420;9.310;2022-11-14T12:35:12;1.95;;;1.08;;
31270;SDS011;17904;47.420;9.310;2022-11-14T12:38:18;1.33;;;0.85;;
31270;SDS011;17904;47.420;9.310;2022-11-14T12:41:05;1.05;;;0.82;;
31270;SDS011;17904;47.420;9.310;2022-11-14T12:43:52;2.70;;;1.23;;
31270;SDS011;17904;47.420;9.310;2022-11-14T13:01:11;1.08;;;0.77;;
31270;SDS011;17904;47.420;9.310;2022-11-14T13:07:32;4.90;;;1.10;;
31270;SDS011;17904;47.420;9.310;2022-11-14T13:10:22;3.08;;;0.93;;
31270;SDS011;17904;47.420;9.310;2022-11-14T13:13:17;1.60;;;1.13;;
31270;SDS011;17904;47.420;9.310;2022-11-14T13:16:22;2.85;;;0.90;;
31270;SDS011;17904;47.420;9.310;2022-11-14T13:19:28;1.50;;;1.00;;
31270;SDS011;17904;47.420;9.310;2022-11-14T13:22:42;1.00;;;0.90;;
31270;SDS011;17904;47.420;9.310;2022-11-14T13:25:29;1.40;;;0.90;;
31270;SDS011;17904;47.420;9.310;2022-11-14T13:28:42;1.15;;;0.85;;
31270;SDS011;17904;47.420;9.310;2022-11-14T13:34:31;0.60;;;0.60;;
31270;SDS011;17904;47.420;9.310;2022-11-14T13:49:42;0.98;;;0.88;;
31270;SDS011;17904;47.420;9.310;2022-11-14T13:52:46;2.40;;;1.17;;
31270;SDS011;17904;47.420;9.310;2022-11-14T13:55:37;1.73;;;0.80;;
31270;SDS011;17904;47.420;9.310;2022-11-14T14:05:08;2.13;;;1.05;;
31270;SDS011;17904;47.420;9.310;2022-11-14T14:08:28;2.80;;;1.08;;
31270;SDS011;17904;47.420;9.310;2022-11-14T14:11:31;3.20;;;1.15;;
31270;SDS011;17904;47.420;9.310;2022-11-14T14:23:28;1.77;;;0.98;;
31270;SDS011;17904;47.420;9.310;2022-11-14T14:32:22;3.60;;;1.10;;
31270;SDS011;17904;47.420;9.310;2022-11-14T14:35:19;1.48;;;1.05;;
31270;SDS011;17904;47.420;9.310;2022-11-14T14:38:10;3.08;;;1.40;;
31270;SDS011;17904;47.420;9.310;2022-11-14T14:40:57;2.05;;;1.10;;
31270;SDS011;17904;47.420;9.310;2022-11-14T14:43:45;1.88;;;1.05;;
31270;SDS011;17904;47.420;9.310;2022-11-14T14:46:39;3.42;;;1.25;;
31270;SDS011;17904;47.420;9.310;2022-11-14T14:49:26;4.88;;;1.10;;
31270;SDS011;17904;47.420;9.310;2022-11-14T14:52:29;1.77;;;1.10;;
31270;SDS011;17904;47.420;9.310;2022-11-14T14:55:34;4.72;;;1.27;;
31270;SDS011;17904;47.420;9.310;2022-11-14T15:04:04;2.65;;;0.93;;
31270;SDS011;17904;47.420;9.310;2022-11-14T15:06:52;5.03;;;1.05;;
31270;SDS011;17904;47.420;9.310;2022-11-14T15:09:49;7.13;;;1.27;;
31270;SDS011;17904;47.420;9.310;2022-11-14T15:12:36;2.30;;;1.08;;
31270;SDS011;17904;47.420;9.310;2022-11-14T15:15:25;2.70;;;1.00;;
31270;SDS011;17904;47.420;9.310;2022-11-14T15:18:17;3.97;;;1.33;;
31270;SDS011;17904;47.420;9.310;2022-11-14T15:21:13;0.82;;;0.82;;
31270;SDS011;17904;47.420;9.310;2022-11-14T15:24:18;3.15;;;1.85;;
31270;SDS011;17904;47.420;9.310;2022-11-14T15:27:15;6.63;;;1.60;;
31270;SDS011;17904;47.420;9.310;2022-11-14T15:30:06;2.33;;;1.27;;
31270;SDS011;17904;47.420;9.310;2022-11-14T15:33:04;5.55;;;1.27;;
31270;SDS011;17904;47.420;9.310;2022-11-14T15:36:13;2.72;;;1.00;;
31270;SDS011;17904;47.420;9.310;2022-11-14T15:39:04;2.38;;;0.88;;
31270;SDS011;17904;47.420;9.310;2022-11-14T15:48:13;3.60;;;1.20;;
31270;SDS011;17904;47.420;9.310;2022-11-14T15:51:03;5.40;;;0.93;;
31270;SDS011;17904;47.420;9.310;2022-11-14T15:53:49;2.55;;;1.27;;
31270;SDS011;17904;47.420;9.310;2022-11-14T15:56:36;3.63;;;1.30;;
31270;SDS011;17904;47.420;9.310;2022-11-14T15:59:23;3.42;;;1.77;;
31270;SDS011;17904;47.420;9.310;2022-11-14T16:02:11;6.82;;;1.85;;
31270;SDS011;17904;47.420;9.310;2022-11-14T16:05:04;2.10;;;1.90;;
31270;SDS011;17904;47.420;9.310;2022-11-14T16:07:51;4.07;;;2.03;;
31270;SDS011;17904;47.420;9.310;2022-11-14T16:10:36;3.33;;;1.40;;
31270;SDS011;17904;47.420;9.310;2022-11-14T16:13:21;2.20;;;1.58;;
31270;SDS011;17904;47.420;9.310;2022-11-14T16:16:07;3.53;;;1.10;;
31270;SDS011;17904;47.420;9.310;2022-11-14T16:18:52;6.97;;;1.70;;
31270;SDS011;17904;47.420;9.310;2022-11-14T16:21:38;3.00;;;1.65;;
31270;SDS011;17904;47.420;9.310;2022-11-14T16:24:23;3.00;;;1.40;;
31270;SDS011;17904;47.420;9.310;2022-11-14T16:27:16;6.55;;;1.38;;
31270;SDS011;17904;47.420;9.310;2022-11-14T16:30:02;1.83;;;1.17;;
31270;SDS011;17904;47.420;9.310;2022-11-14T16:32:47;2.08;;;1.08;;
31270;SDS011;17904;47.420;9.310;2022-11-14T16:35:34;3.83;;;1.20;;
31270;SDS011;17904;47.420;9.310;2022-11-14T16:38:19;1.67;;;1.05;;
31270;SDS011;17904;47.420;9.310;2022-11-14T16:41:08;2.20;;;1.10;;
31270;SDS011;17904;47.420;9.310;2022-11-14T16:43:56;4.78;;;1.10;;
31270;SDS011;17904;47.420;9.310;2022-11-14T16:46:42;2.60;;;1.63;;
31270;SDS011;17904;47.420;9.310;2022-11-14T16:49:29;1.83;;;1.15;;
31270;SDS011;17904;47.420;9.310;2022-11-14T16:52:14;2.53;;;1.17;;
31270;SDS011;17904;47.420;9.310;2022-11-14T16:55:01;1.63;;;1.30;;
31270;SDS011;17904;47.420;9.310;2022-11-14T16:57:46;4.32;;;1.50;;
31270;SDS011;17904;47.420;9.310;2022-11-14T17:00:33;10.88;;;1.65;;
31270;SDS011;17904;47.420;9.310;2022-11-14T17:03:19;3.33;;;1.73;;
31270;SDS011;17904;47.420;9.310;2022-11-14T17:06:06;5.32;;;1.38;;
31270;SDS011;17904;47.420;9.310;2022-11-14T17:08:57;4.40;;;1.60;;
31270;SDS011;17904;47.420;9.310;2022-11-14T17:11:43;3.53;;;1.42;;
31270;SDS011;17904;47.420;9.310;2022-11-14T17:14:29;4.10;;;1.60;;
31270;SDS011;17904;47.420;9.310;2022-11-14T17:17:15;4.57;;;1.40;;
31270;SDS011;17904;47.420;9.310;2022-11-14T17:20:00;3.78;;;1.70;;
31270;SDS011;17904;47.420;9.310;2022-11-14T17:22:45;2.50;;;1.40;;
31270;SDS011;17904;47.420;9.310;2022-11-14T17:25:31;2.72;;;1.42;;
31270;SDS011;17904;47.420;9.310;2022-11-14T17:28:17;1.98;;;1.45;;
31270;SDS011;17904;47.420;9.310;2022-11-14T17:31:06;5.55;;;1.90;;
31270;SDS011;17904;47.420;9.310;2022-11-14T17:33:53;6.60;;;1.63;;
31270;SDS011;17904;47.420;9.310;2022-11-14T17:36:40;2.03;;;1.52;;
31270;SDS011;17904;47.420;9.310;2022-11-14T17:39:25;2.40;;;1.70;;
31270;SDS011;17904;47.420;9.310;2022-11-14T17:42:11;4.40;;;1.67;;
31270;SDS011;17904;47.420;9.310;2022-11-14T17:44:56;6.72;;;1.80;;
31270;SDS011;17904;47.420;9.310;2022-11-14T17:47:44;2.58;;;1.92;;
31270;SDS011;17904;47.420;9.310;2022-11-14T17:50:29;2.15;;;1.58;;
31270;SDS011;17904;47.420;9.310;2022-11-14T17:53:21;4.55;;;1.65;;
31270;SDS011;17904;47.420;9.310;2022-11-14T17:56:17;3.85;;;1.83;;
31270;SDS011;17904;47.420;9.310;2022-11-14T17:59:05;4.82;;;1.85;;
31270;SDS011;17904;47.420;9.310;2022-11-14T18:01:50;8.15;;;2.15;;
31270;SDS011;17904;47.420;9.310;2022-11-14T18:04:38;3.25;;;1.88;;
31270;SDS011;17904;47.420;9.310;2022-11-14T18:07:23;2.63;;;1.70;;
31270;SDS011;17904;47.420;9.310;2022-11-14T18:10:08;2.97;;;1.60;;
31270;SDS011;17904;47.420;9.310;2022-11-14T18:12:54;3.05;;;1.75;;
31270;SDS011;17904;47.420;9.310;2022-11-14T18:15:40;3.15;;;1.83;;
31270;SDS011;17904;47.420;9.310;2022-11-14T18:18:28;3.88;;;1.40;;
31270;SDS011;17904;47.420;9.310;2022-11-14T18:21:16;3.75;;;1.75;;
31270;SDS011;17904;47.420;9.310;2022-11-14T18:24:04;3.13;;;1.80;;
31270;SDS011;17904;47.420;9.310;2022-11-14T18:26:49;2.67;;;1.33;;
31270;SDS011;17904;47.420;9.310;2022-11-14T18:29:35;1.83;;;1.27;;
31270;SDS011;17904;47.420;9.310;2022-11-14T18:32:20;2.70;;;1.60;;
31270;SDS011;17904;47.420;9.310;2022-11-14T18:35:06;4.13;;;1.88;;
31270;SDS011;17904;47.420;9.310;2022-11-14T18:37:51;3.28;;;1.40;;
31270;SDS011;17904;47.420;9.310;2022-11-14T18:40:37;3.13;;;1.48;;
31270;SDS011;17904;47.420;9.310;2022-11-14T18:43:26;2.38;;;1.63;;
31270;SDS011;17904;47.420;9.310;2022-11-14T18:46:17;2.53;;;1.50;;
31270;SDS011;17904;47.420;9.310;2022-11-14T18:49:05;4.50;;;2.03;;
31270;SDS011;17904;47.420;9.310;2022-11-14T18:51:51;3.92;;;2.45;;
31270;SDS011;17904;47.420;9.310;2022-11-14T18:54:38;3.20;;;1.60;;
31270;SDS011;17904;47.420;9.310;2022-11-14T18:57:23;4.70;;;1.50;;
31270;SDS011;17904;47.420;9.310;2022-11-14T19:00:09;2.05;;;1.35;;
31270;SDS011;17904;47.420;9.310;2022-11-14T19:02:55;3.53;;;1.40;;
31270;SDS011;17904;47.420;9.310;2022-11-14T19:05:40;3.72;;;1.45;;
31270;SDS011;17904;47.420;9.310;2022-11-14T19:08:26;2.88;;;1.73;;
31270;SDS011;17904;47.420;9.310;2022-11-14T19:11:12;2.80;;;1.58;;